CheckWX is a tool to help pilots better visualize weather data.  It is not intended as a substitute for an official pre-flight weather briefing.

07:00:48 UTC

EGPE TAF
Inverness Airport
Inverness, United Kingdom
TAF AMD EGPE 210637Z 2106/2115 VRB04KT 9999 SCT003 TEMPO 2106/2108 0500 FG VV///

Sep-21@
06:00 UTC

Sep-21 @ 06:00 UTC

Sep-21@
15:00 UTC

Sep-21 @ 15:00 UTC

TAF AMD EGPE 210637Z 2106/2115 VRB04KT 9999 SCT003
Wind
  • Variable at 4 KTS
Cloud Levels
  • Scattered at 300' AGL

Sep-21@
06:00 UTC

Sep-21 @ 06:00 UTC

Sep-21@
08:00 UTC

Sep-21 @ 08:00 UTC

TEMPO 2106/2108 0500 FG VV///

Temporary

Temporary Changes expected for less than half the time period

Conditions
Fog